• Join FlightAware (Why Join?)
  • Login
  • US Flag 
09:53AM EDT


 

Airport Tracker/Info


-or-


 

Live Flight TrackerFlight Track Log ✈ UAL582 ✈ 12-Apr-2013 ✈ CYYZ - KORD

Flight Track Log - Related Links

Times and Time Zones

All times are in EDT time to prevent confusion due to time zone crossing. See the UAL582 flight status page for this flight to view local times or setup timezone preferences in your user account.

Time Position Orientation Groundspeed Altitude Reporting Facility
EDT Latitude Longitude Course Direction KTS MPH feet Rate Location/Type
05:07PM 43.6333 -79.7000 270° West 180 207 4,000  Level Toronto Center
05:08PM 43.6500 -79.7667 289° West 250 288 6,500 2,880 Climbing Toronto Center
05:09PM 43.7014 -79.9832 277° West  Level FlightAware Approximate
05:09PM 43.7000 -79.8667 305° West 280 322 9,800  Level Toronto Center
05:10PM 43.7117 -80.1065 277° West  Level FlightAware Approximate
05:10PM 43.7167 -79.9833 281° West 290 334 13,100  Level Toronto Center
05:11PM 43.7179 -80.2302 277° West  Level FlightAware Approximate
05:11PM 43.7167 -80.1000 270° West 280 322 16,200  Level Toronto Center
05:12PM 43.7306 -80.3699 277° West  Level FlightAware Approximate
05:12PM 43.7333 -80.1833 285° West 300 345 19,100  Level Toronto Center
05:13PM 43.7333 -80.5105 270° West  Level FlightAware Approximate
05:13PM 43.7333 -80.3000 270° West 310 357 21,600  Level Toronto Center
05:14PM 43.7333 -80.4333 270° West 310 357 23,900 1,680 Climbing Toronto Center
05:15PM 43.7333 -80.5500 270° West 330 380 25,000 1,200 Climbing Toronto Center
05:16PM 43.7167 -80.7000 261° West 360 414 26,300 1,500 Climbing Toronto Center
05:17PM 43.6667 -80.8333 243° Southwest 370 426 28,100 1,560 Climbing Toronto Center
05:18PM 43.6333 -80.9667 251° West 380 437 29,500 1,380 Climbing Toronto Center
05:19PM 43.6000 -81.1000 251° West 390 449 30,900 1,320 Climbing Toronto Center
05:20PM 43.5667 -81.2667 255° West 400 460 32,200 1,560 Climbing Toronto Center
05:21PM 43.5500 -81.4000 260° West 400 460 34,100 1,500 Climbing Toronto Center
05:22PM 43.5167 -81.5667 255° West 390 449 35,300 1,020 Climbing Toronto Center
05:23PM 43.4833 -81.7000 251° West 400 460 36,200 900 Climbing Toronto Center
05:24PM 43.4500 -81.8667 255° West 400 460 37,100 900 Climbing Toronto Center
05:25PM 43.4000 -82.0000 243° Southwest 400 460 38,000 420 Climbing Toronto Center
05:26PM 43.3667 -82.1500 253° West 400 460 38,000  Level Toronto Center
05:27PM 43.3500 -82.3000 261° West 400 460 38,000 -480 Level Toronto Center
05:28PM 43.3167 -82.4333 251° West 400 460 37,100 -960 Descending Toronto Center
05:29PM 43.2833 -82.5833 253° West 410 472 36,100 -960 Descending Toronto Center
05:30PM 43.2664 -82.6758 256° West 405 466 35,500 -900 Descending Cleveland Center
05:31PM 43.2261 -82.8225 249° West 410 472 34,600 -960 Descending Cleveland Center
05:32PM 43.1881 -82.9608 249° West 403 464 33,600 -1,020 Descending Cleveland Center
05:33PM 43.1475 -83.0986 248° West 403 464 32,600 -840 Descending Cleveland Center
05:34PM 43.1089 -83.2422 250° West 403 464 32,000 -300 Descending Cleveland Center
05:35PM 43.0703 -83.3856 250° West 403 464 32,000  Level Cleveland Center
05:36PM 43.0292 -83.5228 248° West 403 464 32,000  Level Cleveland Center
05:37PM 42.9900 -83.6628 249° West 403 464 32,000 -60 Level Cleveland Center
05:38PM 42.9592 -83.8061 254° West 403 464 31,900  Descending Cleveland Center
05:39PM 42.9444 -83.9586 263° West 403 464 32,000  Climbing Cleveland Center
05:41PM 42.9194 -84.2317 263° West 400 460 31,900 -60 Descending Chicago Center
05:42PM 42.9042 -84.3819 262° West 401 461 31,900  Level Chicago Center
05:43PM 42.8869 -84.5333 261° West 403 464 32,000  Climbing Chicago Center
05:44PM 42.8728 -84.6853 263° West 406 467 32,000  Level Chicago Center
05:45PM 42.8553 -84.8675 263° West 405 466 32,000  Level Chicago Center
05:46PM 42.8383 -85.0200 261° West 406 467 32,000 -60 Level Chicago Center
05:47PM 42.8214 -85.1733 261° West 409 471 31,900 -60 Descending Chicago Center
05:48PM 42.8047 -85.3256 262° West 407 468 31,900  Level Chicago Center
05:49PM 42.7883 -85.4800 262° West 411 473 32,000 -780 Climbing Chicago Center
05:50PM 42.7628 -85.6286 257° West 404 465 30,400 -1,800 Descending Chicago Center
05:51PM 42.7356 -85.7792 256° West 406 467 28,300 -2,460 Descending Chicago Center
05:52PM 42.7044 -85.9486 256° West 386 444 25,400 -2,520 Descending Chicago Center
05:53PM 42.6792 -86.0878 256° West 378 435 23,100 -2,520 Descending Chicago Center
05:54PM 42.6553 -86.2194 256° West 362 417 20,300 -1,560 Descending Chicago Center
05:55PM 42.6308 -86.3461 255° West 349 402 19,900 -960 Descending Chicago Center
05:56PM 42.6075 -86.4700 256° West 341 392 18,300 -1,800 Descending Chicago Center
05:57PM 42.5842 -86.5931 256° West 337 388 16,200 -1,980 Descending Chicago Center
05:58PM 42.5631 -86.7122 257° West 328 377 14,300 -2,040 Descending Chicago Center
05:59PM 42.5283 -86.8478 251° West 317 365 12,000 -1,680 Descending Chicago Center
06:01PM 42.4986 -86.9539 249° West 305 351 10,800 -840 Descending Chicago Center
06:02PM 42.4686 -87.0597 249° West 302 348 10,300 -360 Descending Chicago Center
06:03PM 42.4394 -87.1681 250° West 307 353 10,100 -540 Descending Chicago Center
06:04PM 42.3867 -87.2272 220° Southwest 278 320 9,200 -780 Descending Chicago Center
06:05PM 42.3003 -87.2283 181° South 282 325 8,600 -780 Descending Chicago Center
06:06PM 42.2244 -87.2328 182° South 276 318 7,600 -780 Descending Chicago Center
06:07PM 42.1342 -87.2389 183° South 271 312 7,000 -300 Descending Chicago Center
06:08PM 42.0664 -87.2714 200° South 260 299 7,000  Level Chicago Center
06:09PM 42.0153 -87.3181 214° Southwest 227 261 7,000  Level Chicago Center
06:10PM 41.9833 -87.3833 237° Southwest 202 232 7,000  Level Chicago TRACON
06:11PM 41.9833 -87.4500 270° West 175 201 7,000 -240 Level Chicago TRACON
06:12PM 41.9833 -87.5167 270° West 176 203 6,600 -600 Descending Chicago TRACON
06:13PM 41.9833 -87.5833 270° West 163 188 5,800 -900 Descending Chicago TRACON
06:14PM 41.9833 -87.6333 270° West 154 177 4,700 -1,080 Descending Chicago TRACON
06:15PM 41.9833 -87.6833 270° West 149 171 3,700 -1,140 Descending Chicago TRACON